Time;durP1;ratioP1;P1;durP2;ratioP2;P2;SDS_P1;SDS_P2;PMS_P1;PMS_P2;Temp;Humidity;BMP_temperature;BMP_pressure;BME280_temperature;BME280_humidity;BME280_pressure;Samples;Min_cycle;Max_cycle;Signal;HPM_P1;HPM_P2
2023/01/07 00:00:49;;;;;;;3.13;0.95;;;19.80;63.70;;;;;;5055255;28;20049;-59
2023/01/07 00:03:15;;;;;;;2.40;0.80;;;19.80;63.70;;;;;;5054738;28;20056;-59
2023/01/07 00:05:42;;;;;;;1.35;0.60;;;19.80;63.60;;;;;;5053905;28;20086;-59
2023/01/07 00:08:07;;;;;;;3.60;0.85;;;19.80;63.70;;;;;;5054938;28;20504;-59
2023/01/07 00:10:33;;;;;;;1.70;0.65;;;19.80;63.70;;;;;;5054651;28;20048;-59
2023/01/07 00:12:59;;;;;;;2.63;0.80;;;19.80;63.70;;;;;;5054126;28;20050;-59
2023/01/07 00:15:25;;;;;;;1.83;0.73;;;19.70;63.60;;;;;;5054317;28;20045;-59
2023/01/07 00:17:50;;;;;;;1.52;0.88;;;19.70;63.60;;;;;;5054131;28;20135;-59
2023/01/07 00:20:16;;;;;;;2.03;0.60;;;19.70;63.60;;;;;;5053558;28;20051;-59
2023/01/07 00:22:41;;;;;;;2.50;0.80;;;19.70;63.60;;;;;;5054806;28;20041;-59
2023/01/07 00:25:07;;;;;;;2.05;0.80;;;19.70;63.50;;;;;;5054410;28;20067;-59
2023/01/07 00:27:33;;;;;;;1.48;0.68;;;19.70;63.60;;;;;;5053544;28;20045;-59
2023/01/07 00:29:58;;;;;;;2.70;0.60;;;19.70;63.60;;;;;;5054691;28;20048;-59
2023/01/07 00:32:46;;;;;;;2.60;0.80;;;19.70;63.60;;;;;;5052893;28;20099;-59
2023/01/07 00:35:21;;;;;;;1.30;0.63;;;19.70;63.60;;;;;;5053267;28;20048;-59
2023/01/07 00:37:53;;;;;;;0.93;0.55;;;19.70;63.50;;;;;;5054570;28;20049;-59
2023/01/07 00:40:19;;;;;;;1.10;0.65;;;19.70;63.60;;;;;;5054014;28;20086;-59
2023/01/07 00:42:55;;;;;;;1.20;0.55;;;19.70;63.50;;;;;;5053375;28;20504;-59
2023/01/07 00:45:21;;;;;;;1.15;0.63;;;19.60;63.50;;;;;;5053925;28;20052;-59
2023/01/07 00:47:47;;;;;;;1.58;0.75;;;19.60;63.50;;;;;;5052314;28;20041;-59
2023/01/07 00:50:13;;;;;;;1.75;0.57;;;19.60;63.50;;;;;;5053719;28;20072;-59
2023/01/07 00:52:38;;;;;;;2.17;0.80;;;19.60;63.50;;;;;;5054263;28;20040;-59
2023/01/07 00:55:04;;;;;;;1.38;0.80;;;19.60;63.50;;;;;;5053351;28;20040;-59
2023/01/07 00:57:30;;;;;;;1.50;0.68;;;19.60;63.50;;;;;;5053796;28;20480;-59
2023/01/07 00:59:55;;;;;;;1.80;0.55;;;19.60;63.50;;;;;;5053975;28;20045;-59
2023/01/07 01:02:21;;;;;;;1.50;0.70;;;19.60;63.40;;;;;;5053099;28;20577;-59
2023/01/07 01:04:46;;;;;;;0.95;0.55;;;19.60;63.40;;;;;;5053548;28;20040;-59
2023/01/07 01:07:12;;;;;;;1.10;0.65;;;19.60;63.50;;;;;;5053836;28;20049;-59
2023/01/07 01:09:37;;;;;;;2.63;0.70;;;19.60;63.50;;;;;;5047969;28;20045;-59
2023/01/07 01:12:03;;;;;;;0.90;0.60;;;19.60;63.50;;;;;;5053774;28;20045;-59
2023/01/07 01:14:28;;;;;;;2.45;0.70;;;19.60;63.40;;;;;;5052143;28;20049;-59
2023/01/07 01:16:54;;;;;;;3.05;0.80;;;19.50;63.40;;;;;;5052915;28;20068;-60
2023/01/07 01:19:19;;;;;;;1.60;0.60;;;19.50;63.40;;;;;;5053558;28;20060;-59
2023/01/07 01:21:45;;;;;;;1.35;0.60;;;19.50;63.40;;;;;;5053643;28;20069;-59
2023/01/07 01:24:11;;;;;;;2.03;0.70;;;19.50;63.40;;;;;;5052315;28;20048;-59
2023/01/07 01:26:36;;;;;;;1.88;0.90;;;19.50;63.40;;;;;;5053737;28;20048;-59
2023/01/07 01:29:02;;;;;;;1.85;0.68;;;19.50;63.30;;;;;;5052045;28;20400;-59
2023/01/07 01:31:27;;;;;;;0.65;0.50;;;19.50;63.30;;;;;;5051668;28;20044;-59
2023/01/07 01:33:54;;;;;;;1.58;0.60;;;19.50;63.30;;;;;;5052359;28;20444;-59
2023/01/07 01:36:19;;;;;;;2.03;0.70;;;19.50;63.40;;;;;;5053260;28;20123;-59
2023/01/07 01:38:45;;;;;;;1.35;0.70;;;19.50;63.30;;;;;;5052517;28;20136;-59
2023/01/07 01:41:12;;;;;;;1.58;0.50;;;19.50;63.30;;;;;;5053123;28;20055;-59
2023/01/07 01:43:39;;;;;;;2.22;0.70;;;19.50;63.30;;;;;;5051549;28;20481;-59
2023/01/07 01:46:31;;;;;;;0.93;0.60;;;19.50;63.30;;;;;;5052256;28;20515;-59
2023/01/07 01:49:30;;;;;;;0.70;0.52;;;19.50;63.40;;;;;;5046370;28;20053;-59
2023/01/07 01:52:08;;;;;;;1.40;0.77;;;19.40;63.20;;;;;;5018464;28;20106;-59
2023/01/07 01:54:33;;;;;;;1.65;0.63;;;19.40;63.20;;;;;;5053098;28;20044;-59
2023/01/07 01:57:00;;;;;;;1.55;0.73;;;19.40;63.20;;;;;;5053172;28;20048;-59
2023/01/07 01:59:26;;;;;;;0.73;0.50;;;19.40;63.30;;;;;;5050368;28;20455;-59
2023/01/07 02:01:52;;;;;;;1.45;0.68;;;19.40;63.20;;;;;;5051501;28;20123;-59
2023/01/07 02:04:19;;;;;;;1.77;0.70;;;19.40;63.20;;;;;;5069217;28;20460;-59
2023/01/07 02:07:07;;;;;;;2.03;0.63;;;19.40;63.30;;;;;;5054116;28;20044;-59
2023/01/07 02:09:33;;;;;;;1.63;0.60;;;19.40;63.20;;;;;;5071280;28;20094;-59
2023/01/07 02:12:05;;;;;;;0.88;0.50;;;19.40;63.20;;;;;;5072291;28;20056;-59
2023/01/07 02:14:49;;;;;;;2.70;0.68;;;19.40;63.20;;;;;;5049186;28;20501;-59
2023/01/07 02:17:29;;;;;;;0.80;0.60;;;19.40;63.20;;;;;;5072334;28;20053;-59
2023/01/07 02:20:13;;;;;;;1.38;0.68;;;19.40;63.20;;;;;;5071520;28;20051;-59
2023/01/07 02:22:45;;;;;;;1.60;0.65;;;19.30;63.20;;;;;;5072721;28;20032;-59
2023/01/07 02:25:25;;;;;;;0.93;0.50;;;19.30;63.20;;;;;;5072331;28;20044;-59
2023/01/07 02:28:26;;;;;;;0.77;0.45;;;19.30;63.10;;;;;;5070543;28;20466;-59
2023/01/07 02:31:17;;;;;;;2.28;0.80;;;19.40;63.10;;;;;;5058005;28;20056;-59
2023/01/07 02:33:54;;;;;;;1.38;0.60;;;19.30;63.10;;;;;;5070590;28;20071;-59
2023/01/07 02:36:25;;;;;;;2.15;0.88;;;19.30;63.10;;;;;;5071948;28;20488;-59
2023/01/07 02:39:10;;;;;;;1.73;0.68;;;19.30;63.10;;;;;;5054540;28;20044;-59
2023/01/07 02:41:52;;;;;;;1.45;0.60;;;19.30;63.00;;;;;;5065396;28;20041;-59
2023/01/07 02:44:57;;;;;;;1.13;0.55;;;19.30;63.10;;;;;;5068933;28;20045;-59
2023/01/07 02:47:34;;;;;;;1.17;0.60;;;19.30;63.10;;;;;;5069901;28;20491;-59
2023/01/07 02:49:59;;;;;;;2.30;0.70;;;19.30;63.10;;;;;;5054040;28;20056;-59
2023/01/07 02:52:30;;;;;;;1.73;0.60;;;19.30;63.10;;;;;;5071919;28;20044;-59
2023/01/07 02:55:05;;;;;;;1.75;0.70;;;19.30;63.10;;;;;;5070228;28;20094;-58
2023/01/07 02:57:31;;;;;;;1.50;0.60;;;19.30;63.10;;;;;;5070574;28;20048;-59
2023/01/07 03:00:07;;;;;;;1.33;0.52;;;19.30;63.10;;;;;;5072346;28;20040;-59
2023/01/07 03:03:11;;;;;;;0.85;0.60;;;19.30;63.10;;;;;;5052511;28;20054;-59
2023/01/07 03:06:00;;;;;;;0.80;0.50;;;19.30;63.10;;;;;;5069625;28;20052;-59
2023/01/07 03:08:41;;;;;;;1.27;0.50;;;19.20;63.10;;;;;;5057961;28;20214;-59
2023/01/07 03:11:08;;;;;;;1.20;0.60;;;19.30;63.10;;;;;;5071903;28;20053;-59
2023/01/07 03:13:40;;;;;;;2.10;0.68;;;19.20;63.10;;;;;;5071823;28;20033;-59
2023/01/07 03:16:15;;;;;;;1.25;0.60;;;19.20;63.00;;;;;;5070001;28;20044;-59
2023/01/07 03:19:00;;;;;;;1.13;0.60;;;19.20;63.00;;;;;;5070546;28;20079;-58
2023/01/07 03:21:26;;;;;;;1.58;0.60;;;19.20;63.00;;;;;;5048426;28;20505;-59
2023/01/07 03:23:53;;;;;;;1.85;0.68;;;19.20;63.10;;;;;;5070226;28;20068;-59
2023/01/07 03:26:27;;;;;;;1.15;0.50;;;19.20;63.10;;;;;;5070322;28;20052;-59
2023/01/07 03:28:52;;;;;;;1.08;0.60;;;19.20;63.00;;;;;;5070866;28;20082;-59
2023/01/07 03:31:18;;;;;;;1.00;0.60;;;19.20;63.10;;;;;;5069546;28;20124;-59
2023/01/07 03:33:51;;;;;;;1.15;0.60;;;19.20;63.10;;;;;;5053690;28;20139;-59
2023/01/07 03:36:18;;;;;;;1.02;0.60;;;19.20;63.10;;;;;;5070095;28;20048;-59
2023/01/07 03:38:44;;;;;;;1.08;0.60;;;19.20;63.00;;;;;;5069998;28;20048;-59
2023/01/07 03:42:38;;;;;;;1.10;0.50;;;19.20;63.00;;;;;;5070076;28;20047;-59
2023/01/07 03:43:55;;;;;;;1.30;0.68;;;19.30;63.60;;;;;;5070657;28;20442;-59
2023/01/07 03:46:20;;;;;;;1.20;0.60;;;19.20;63.00;;;;;;5071388;28;20120;-59
2023/01/07 03:48:46;;;;;;;0.95;0.52;;;19.20;63.00;;;;;;5070761;28;20426;-59
2023/01/07 03:51:12;;;;;;;1.13;0.50;;;19.20;62.90;;;;;;5070330;28;20388;-59
2023/01/07 03:53:37;;;;;;;1.52;0.60;;;19.30;63.00;;;;;;5070915;28;20484;-59
2023/01/07 03:56:03;;;;;;;1.10;0.68;;;19.30;63.00;;;;;;5075342;28;20048;-59
2023/01/07 03:58:28;;;;;;;0.88;0.57;;;19.30;63.00;;;;;;5073979;28;20041;-59
2023/01/07 04:00:54;;;;;;;1.15;0.68;;;19.30;62.90;;;;;;5075285;28;20071;-59
2023/01/07 04:03:20;;;;;;;0.68;0.50;;;19.30;62.90;;;;;;5075050;28;20078;-59
2023/01/07 04:05:45;;;;;;;1.67;0.50;;;19.30;62.90;;;;;;5074202;28;20052;-59
2023/01/07 04:08:11;;;;;;;1.02;0.60;;;19.30;62.80;;;;;;5075023;28;20048;-59
2023/01/07 04:10:36;;;;;;;1.90;0.70;;;19.30;62.80;;;;;;5073405;28;20052;-58
2023/01/07 04:13:02;;;;;;;1.10;0.40;;;19.30;62.80;;;;;;5074368;28;20036;-59
2023/01/07 04:15:27;;;;;;;1.13;0.55;;;19.30;62.80;;;;;;5073511;28;20519;-59
2023/01/07 04:17:53;;;;;;;1.52;0.70;;;19.40;62.80;;;;;;5074933;28;20454;-59
2023/01/07 04:20:18;;;;;;;1.02;0.60;;;19.40;62.80;;;;;;5073689;28;20113;-59
2023/01/07 04:22:44;;;;;;;1.23;0.60;;;19.40;62.80;;;;;;5069331;28;20044;-59
2023/01/07 04:25:10;;;;;;;2.38;0.75;;;19.40;62.80;;;;;;5074732;28;20190;-59
2023/01/07 04:27:35;;;;;;;0.95;0.50;;;19.40;62.70;;;;;;5073564;28;20147;-58
2023/01/07 04:30:01;;;;;;;1.50;0.60;;;19.50;62.80;;;;;;5074453;28;20097;-59
2023/01/07 04:32:26;;;;;;;1.60;0.80;;;19.50;62.80;;;;;;5074551;28;20060;-59
2023/01/07 04:34:52;;;;;;;1.23;0.60;;;19.50;62.70;;;;;;5073886;28;20174;-59
2023/01/07 04:37:17;;;;;;;1.00;0.60;;;19.50;62.70;;;;;;5073073;28;20090;-59
2023/01/07 04:39:43;;;;;;;1.60;0.57;;;19.50;62.70;;;;;;5074092;28;20126;-59
2023/01/07 04:42:08;;;;;;;0.90;0.57;;;19.60;62.90;;;;;;5074019;28;20043;-59
2023/01/07 04:44:34;;;;;;;1.73;0.60;;;19.60;62.70;;;;;;5074403;28;20089;-59
2023/01/07 04:46:59;;;;;;;0.40;0.40;;;19.60;62.70;;;;;;5073879;28;20048;-59
2023/01/07 04:49:25;;;;;;;0.75;0.40;;;19.60;62.70;;;;;;5073769;28;20051;-59
2023/01/07 04:51:50;;;;;;;0.85;0.45;;;19.60;62.70;;;;;;5073342;28;20051;-59
2023/01/07 04:54:16;;;;;;;0.77;0.50;;;19.60;62.70;;;;;;5071813;28;20036;-59
2023/01/07 04:56:42;;;;;;;0.88;0.50;;;19.70;62.70;;;;;;5073787;28;20044;-58
2023/01/07 04:59:07;;;;;;;0.70;0.50;;;19.70;62.70;;;;;;5073993;28;20048;-59
2023/01/07 05:01:33;;;;;;;1.20;0.50;;;19.70;62.60;;;;;;5061872;28;20072;-59
2023/01/07 05:03:58;;;;;;;1.73;0.60;;;19.70;62.60;;;;;;5053496;28;20095;-59
2023/01/07 05:06:24;;;;;;;1.10;0.70;;;19.70;62.60;;;;;;5051625;28;20053;-60
2023/01/07 05:08:49;;;;;;;0.30;0.30;;;19.70;62.60;;;;;;5052972;28;20045;-59
2023/01/07 05:11:20;;;;;;;0.88;0.40;;;19.70;62.60;;;;;;5053390;28;20052;-59
2023/01/07 05:13:47;;;;;;;1.10;0.65;;;19.70;62.60;;;;;;5053338;28;20555;-59
2023/01/07 05:16:12;;;;;;;0.77;0.40;;;19.80;62.60;;;;;;5052752;28;20519;-59
2023/01/07 05:18:38;;;;;;;1.17;0.60;;;19.80;62.60;;;;;;5052901;28;20068;-59
2023/01/07 05:21:04;;;;;;;1.17;0.50;;;19.80;62.60;;;;;;5052659;28;20488;-59
2023/01/07 05:23:29;;;;;;;1.30;0.50;;;19.80;62.60;;;;;;5051540;28;20362;-59
2023/01/07 05:25:55;;;;;;;0.75;0.50;;;19.80;62.60;;;;;;5047227;28;20405;-59
2023/01/07 05:28:20;;;;;;;1.35;0.60;;;19.80;62.60;;;;;;5051930;28;20140;-59
2023/01/07 05:30:46;;;;;;;0.88;0.43;;;19.80;62.50;;;;;;5050500;28;20041;-59
2023/01/07 05:33:12;;;;;;;1.75;0.60;;;19.80;62.50;;;;;;5052632;28;20049;-60
2023/01/07 05:35:37;;;;;;;0.93;0.50;;;19.80;62.50;;;;;;5052365;28;20452;-59
2023/01/07 05:38:03;;;;;;;0.68;0.50;;;19.80;62.50;;;;;;5051801;28;20045;-59
2023/01/07 05:40:28;;;;;;;0.70;0.40;;;19.90;62.60;;;;;;5051926;28;20049;-59
2023/01/07 05:42:54;;;;;;;0.70;0.50;;;19.90;62.60;;;;;;5052673;28;20033;-59
2023/01/07 05:45:22;;;;;;;0.80;0.50;;;19.90;62.60;;;;;;5051661;28;20045;-59
2023/01/07 05:47:48;;;;;;;0.85;0.50;;;19.90;62.60;;;;;;5052623;28;20039;-59
2023/01/07 05:50:13;;;;;;;0.80;0.40;;;19.90;62.50;;;;;;5050895;28;20111;-59
2023/01/07 05:52:39;;;;;;;0.65;0.40;;;19.90;62.50;;;;;;5051056;28;20077;-59
2023/01/07 05:55:05;;;;;;;0.90;0.50;;;19.90;62.50;;;;;;5052303;28;20077;-59
2023/01/07 05:57:31;;;;;;;0.60;0.40;;;19.90;62.50;;;;;;5051337;28;20047;-59
2023/01/07 05:59:57;;;;;;;0.90;0.40;;;19.90;62.50;;;;;;5052152;28;20329;-59
2023/01/07 06:02:22;;;;;;;0.55;0.40;;;19.90;62.50;;;;;;5051841;28;20043;-59
2023/01/07 06:04:48;;;;;;;0.52;0.32;;;19.90;62.50;;;;;;5051522;28;20385;-59
2023/01/07 06:07:13;;;;;;;0.50;0.43;;;19.90;62.50;;;;;;5051334;28;20048;-59
2023/01/07 06:09:39;;;;;;;0.90;0.40;;;19.90;62.50;;;;;;5052148;28;20041;-59
2023/01/07 06:12:04;;;;;;;0.63;0.50;;;19.90;62.50;;;;;;5051208;28;20056;-59
2023/01/07 06:14:30;;;;;;;1.33;0.60;;;19.90;62.50;;;;;;5051849;28;20116;-59
2023/01/07 06:16:56;;;;;;;0.65;0.30;;;20.00;62.50;;;;;;5013385;28;1055966;-59
2023/01/07 06:19:21;;;;;;;1.27;0.52;;;19.90;62.40;;;;;;5051308;28;20048;-59
2023/01/07 06:21:48;;;;;;;0.35;0.20;;;20.00;62.40;;;;;;5052432;28;20408;-59
2023/01/07 06:24:14;;;;;;;1.30;0.40;;;20.00;62.40;;;;;;5050938;28;20041;-59
2023/01/07 06:26:39;;;;;;;1.13;0.50;;;20.00;62.40;;;;;;5052060;28;20041;-59
2023/01/07 06:29:05;;;;;;;1.70;0.50;;;20.00;62.40;;;;;;5052436;28;20044;-59
2023/01/07 06:31:31;;;;;;;0.98;0.55;;;20.00;62.40;;;;;;5052066;28;20514;-59
2023/01/07 06:33:57;;;;;;;1.02;0.40;;;20.00;62.30;;;;;;5034160;28;20079;-58
2023/01/07 06:36:22;;;;;;;0.70;0.43;;;20.00;62.30;;;;;;5052158;28;20489;-59
2023/01/07 06:38:48;;;;;;;0.55;0.50;;;20.00;62.30;;;;;;5052345;28;20392;-59
2023/01/07 06:41:13;;;;;;;0.82;0.45;;;20.00;62.30;;;;;;5051241;28;20033;-59
2023/01/07 06:43:39;;;;;;;0.70;0.50;;;20.00;62.30;;;;;;5052499;28;20090;-59
2023/01/07 06:46:04;;;;;;;1.38;0.50;;;20.00;62.30;;;;;;5052205;28;20507;-59
2023/01/07 06:48:30;;;;;;;0.63;0.50;;;20.00;62.30;;;;;;5051324;28;20100;-59
2023/01/07 06:50:55;;;;;;;0.43;0.40;;;20.00;62.60;;;;;;5052100;28;20093;-59
2023/01/07 06:53:21;;;;;;;0.65;0.43;;;20.00;62.30;;;;;;5051751;28;20049;-59
2023/01/07 06:55:48;;;;;;;0.50;0.50;;;20.00;62.30;;;;;;5051615;28;20056;-59
2023/01/07 06:58:14;;;;;;;0.85;0.40;;;20.00;62.20;;;;;;5051910;28;20060;-59
2023/01/07 07:00:39;;;;;;;0.95;0.40;;;20.00;62.20;;;;;;5052136;28;20037;-59
2023/01/07 07:03:05;;;;;;;0.60;0.40;;;20.00;62.20;;;;;;5052021;28;20456;-59
2023/01/07 07:05:30;;;;;;;1.15;0.70;;;20.00;62.20;;;;;;5051665;28;20081;-59
2023/01/07 07:07:56;;;;;;;1.20;0.60;;;20.10;62.30;;;;;;5050157;28;20174;-59
2023/01/07 07:10:21;;;;;;;1.80;0.50;;;20.10;62.20;;;;;;5051464;28;20393;-59
2023/01/07 07:12:47;;;;;;;0.63;0.40;;;20.10;62.20;;;;;;5052078;28;20068;-59
2023/01/07 07:15:13;;;;;;;0.88;0.40;;;20.10;62.30;;;;;;5051204;28;20158;-59
2023/01/07 07:17:38;;;;;;;0.95;0.45;;;20.10;62.30;;;;;;5051922;28;20049;-59
2023/01/07 07:20:04;;;;;;;1.35;0.40;;;20.10;62.30;;;;;;5046695;28;20045;-60
2023/01/07 07:22:30;;;;;;;1.08;0.57;;;20.10;62.20;;;;;;5051107;28;20059;-59
2023/01/07 07:24:56;;;;;;;1.55;0.52;;;20.10;62.20;;;;;;5051923;28;20041;-59
2023/01/07 07:27:21;;;;;;;0.93;0.40;;;20.10;62.20;;;;;;5061883;28;20048;-59
2023/01/07 07:29:47;;;;;;;1.05;0.60;;;20.10;62.20;;;;;;5073207;28;20037;-59
2023/01/07 07:32:12;;;;;;;0.75;0.43;;;20.10;62.20;;;;;;5075429;28;20123;-60
2023/01/07 07:34:38;;;;;;;0.88;0.50;;;20.10;62.20;;;;;;5075652;28;20098;-59
2023/01/07 07:37:03;;;;;;;1.08;0.60;;;20.10;62.20;;;;;;5074546;28;20040;-59
2023/01/07 07:39:29;;;;;;;1.38;0.50;;;20.10;62.10;;;;;;5073844;28;20049;-59
2023/01/07 07:41:54;;;;;;;1.77;0.43;;;20.10;62.20;;;;;;5075355;28;20036;-59
2023/01/07 07:44:20;;;;;;;1.38;0.70;;;20.10;62.20;;;;;;5074341;28;20040;-59
2023/01/07 07:46:45;;;;;;;0.93;0.55;;;20.20;62.20;;;;;;5075640;28;20135;-59
2023/01/07 07:49:11;;;;;;;1.98;0.50;;;20.10;62.10;;;;;;5075237;28;20076;-59
2023/01/07 07:51:37;;;;;;;2.05;0.50;;;20.10;62.20;;;;;;5074660;28;20049;-59
2023/01/07 07:54:02;;;;;;;1.92;0.60;;;20.20;62.20;;;;;;5074912;28;20036;-59
2023/01/07 07:56:28;;;;;;;0.80;0.50;;;20.20;62.10;;;;;;5074662;28;20495;-59
2023/01/07 07:58:53;;;;;;;2.80;0.55;;;20.20;62.20;;;;;;5074683;28;20471;-59
2023/01/07 08:01:19;;;;;;;1.70;0.60;;;20.20;62.20;;;;;;5074889;28;20056;-59
2023/01/07 08:03:44;;;;;;;0.93;0.50;;;20.20;62.20;;;;;;5074369;28;20058;-59
2023/01/07 08:06:10;;;;;;;1.48;0.50;;;20.20;62.30;;;;;;5072996;28;20446;-59
2023/01/07 08:08:36;;;;;;;1.75;0.80;;;20.20;62.30;;;;;;5074922;28;20124;-62
2023/01/07 08:11:02;;;;;;;2.55;0.68;;;20.20;62.40;;;;;;5074367;28;20159;-57
2023/01/07 08:13:29;;;;;;;1.65;0.70;;;20.20;62.40;;;;;;5074669;28;20079;-59
2023/01/07 08:15:54;;;;;;;1.50;0.60;;;20.20;62.50;;;;;;5057410;28;20391;-58
2023/01/07 08:18:20;;;;;;;5.22;0.63;;;20.20;62.70;;;;;;5053050;28;20045;-58
2023/01/07 08:20:46;;;;;;;2.28;0.60;;;20.30;62.80;;;;;;5048914;28;20049;-58
2023/01/07 08:23:11;;;;;;;2.35;0.70;;;20.30;63.00;;;;;;5052702;28;20496;-58
2023/01/07 08:25:37;;;;;;;4.10;0.73;;;20.30;63.00;;;;;;5052910;28;20128;-59
2023/01/07 08:28:02;;;;;;;3.10;0.80;;;20.30;63.10;;;;;;5053288;28;20041;-58
2023/01/07 08:30:28;;;;;;;8.95;0.85;;;20.30;63.10;;;;;;5054245;28;20407;-58
2023/01/07 08:32:54;;;;;;;4.13;0.60;;;20.30;63.10;;;;;;5053740;28;20033;-58
2023/01/07 08:35:20;;;;;;;2.92;0.80;;;20.40;63.30;;;;;;5052598;28;20067;-58
2023/01/07 08:37:45;;;;;;;2.72;0.60;;;20.40;63.30;;;;;;5054455;28;20041;-58
2023/01/07 08:40:11;;;;;;;2.15;0.60;;;20.40;63.40;;;;;;5052334;28;20076;-59
2023/01/07 08:42:37;;;;;;;2.15;0.50;;;20.40;63.40;;;;;;5054006;28;20044;-58
2023/01/07 08:45:07;;;;;;;6.45;0.73;;;20.40;63.40;;;;;;5054293;28;20090;-58
2023/01/07 08:47:32;;;;;;;1.20;0.50;;;20.40;63.40;;;;;;5051740;28;20402;-59
2023/01/07 08:49:58;;;;;;;1.65;0.70;;;20.40;63.50;;;;;;5054052;28;20496;-59
2023/01/07 08:52:24;;;;;;;1.95;0.77;;;20.40;63.50;;;;;;5053957;28;20041;-59
2023/01/07 08:54:49;;;;;;;2.80;0.60;;;20.40;63.50;;;;;;5052045;28;20040;-59
2023/01/07 08:57:15;;;;;;;2.90;0.73;;;20.40;63.50;;;;;;5053622;28;20044;-58
2023/01/07 08:59:42;;;;;;;1.02;0.47;;;20.40;63.50;;;;;;5053849;28;20116;-59
2023/01/07 09:02:17;;;;;;;3.17;0.60;;;20.40;63.50;;;;;;5053010;28;20048;-59
2023/01/07 09:04:43;;;;;;;1.52;0.50;;;20.40;63.50;;;;;;5053559;28;20080;-59
2023/01/07 09:07:09;;;;;;;1.92;0.60;;;20.40;63.40;;;;;;5052762;28;20076;-59
2023/01/07 09:09:35;;;;;;;1.27;0.50;;;20.40;63.40;;;;;;5053500;28;20047;-58
2023/01/07 09:12:01;;;;;;;3.20;0.60;;;20.40;63.30;;;;;;5053829;28;20044;-58
2023/01/07 09:14:26;;;;;;;2.75;0.55;;;20.40;63.30;;;;;;5051070;28;20044;-58
2023/01/07 09:16:52;;;;;;;2.53;0.60;;;20.40;63.20;;;;;;5053594;28;20060;-59
2023/01/07 09:19:18;;;;;;;3.17;0.80;;;20.40;63.30;;;;;;5053571;28;20082;-58
2023/01/07 09:21:44;;;;;;;3.05;0.50;;;20.40;63.30;;;;;;5052701;28;20041;-59
2023/01/07 09:24:09;;;;;;;1.80;0.50;;;20.40;63.40;;;;;;5052976;28;20098;-59
2023/01/07 09:26:35;;;;;;;2.85;0.63;;;20.40;63.40;;;;;;5053470;28;20037;-59
2023/01/07 09:29:00;;;;;;;3.25;0.80;;;20.40;63.50;;;;;;5052623;28;20040;-59
2023/01/07 09:31:26;;;;;;;3.22;0.50;;;20.40;63.60;;;;;;5052845;28;20049;-58
2023/01/07 09:33:51;;;;;;;1.27;0.40;;;20.40;63.60;;;;;;5052283;28;20078;-58
2023/01/07 09:36:17;;;;;;;2.88;0.60;;;20.40;63.60;;;;;;5051916;28;20040;-58
2023/01/07 09:38:42;;;;;;;4.00;0.70;;;20.40;63.60;;;;;;5053496;28;20534;-61
2023/01/07 09:41:22;;;;;;;2.72;0.60;;;20.40;63.60;;;;;;5053578;28;20120;-60
2023/01/07 09:43:47;;;;;;;2.10;0.60;;;20.40;63.60;;;;;;5051487;28;20045;-59
2023/01/07 09:46:13;;;;;;;2.05;0.60;;;20.40;63.60;;;;;;5051706;28;20090;-59
2023/01/07 09:48:46;;;;;;;4.85;0.60;;;20.40;63.60;;;;;;5027413;28;20047;-57
2023/01/07 09:51:21;;;;;;;1.85;0.70;;;20.40;63.60;;;;;;5029668;28;20037;-58
2023/01/07 09:53:54;;;;;;;5.53;0.60;;;20.40;63.70;;;;;;5032547;28;20041;-58
2023/01/07 09:56:26;;;;;;;2.20;0.60;;;20.40;63.70;;;;;;5035479;28;20037;-58
2023/01/07 09:58:52;;;;;;;1.80;0.63;;;20.30;63.70;;;;;;5038153;28;20128;-58
2023/01/07 10:01:29;;;;;;;1.45;0.52;;;20.40;63.70;;;;;;5031071;28;20117;-58
2023/01/07 10:04:19;;;;;;;1.10;0.50;;;20.40;63.80;;;;;;5035930;28;20124;-59
2023/01/07 10:07:09;;;;;;;1.45;0.50;;;20.30;63.70;;;;;;5051146;28;20405;-58
2023/01/07 10:09:50;;;;;;;2.55;0.45;;;20.30;63.60;;;;;;5035922;28;20080;-58
2023/01/07 10:12:27;;;;;;;1.77;0.52;;;20.30;63.70;;;;;;5033474;28;20053;-58
2023/01/07 10:15:33;;;;;;;2.38;0.50;;;20.30;63.70;;;;;;5051619;28;20083;-58
2023/01/07 10:18:34;;;;;;;2.25;0.50;;;20.30;63.60;;;;;;5050444;28;20076;-58
2023/01/07 10:21:20;;;;;;;1.40;0.50;;;20.30;63.50;;;;;;5051087;28;20120;-58
2023/01/07 10:23:48;;;;;;;1.20;0.55;;;20.30;63.50;;;;;;5052210;28;20131;-58
2023/01/07 10:26:25;;;;;;;1.58;0.50;;;20.30;64.10;;;;;;5051006;28;20056;-59
2023/01/07 10:28:53;;;;;;;2.20;0.40;;;20.30;63.40;;;;;;5041620;28;20045;-58
2023/01/07 10:31:21;;;;;;;1.85;0.50;;;20.30;63.60;;;;;;5046973;28;20130;-58
2023/01/07 10:33:47;;;;;;;;;;;20.30;63.60;;;;;;5051817;28;20045;-58
2023/01/07 10:36:21;;;;;;;0.95;0.40;;;20.30;63.50;;;;;;5051313;28;19927;-58
2023/01/07 10:39:22;;;;;;;2.08;0.60;;;20.20;64.10;;;;;;5050344;28;20041;-58
2023/01/07 10:42:03;;;;;;;1.45;0.50;;;20.30;63.50;;;;;;5066916;28;20057;-63
2023/01/07 10:44:47;;;;;;;2.97;0.50;;;20.30;63.60;;;;;;5052340;28;20044;-58
2023/01/07 10:47:35;;;;;;;1.85;0.60;;;20.20;63.50;;;;;;5049487;28;20048;-59
2023/01/07 10:50:29;;;;;;;2.22;0.43;;;20.20;64.20;;;;;;5050140;28;20498;-59
2023/01/07 10:53:12;;;;;;;3.58;0.50;;;20.20;63.70;;;;;;5054269;28;20441;-61
2023/01/07 10:56:03;;;;;;;2.78;0.50;;;20.20;63.80;;;;;;5051359;28;20448;-58
2023/01/07 10:58:35;;;;;;;1.05;0.50;;;20.20;63.80;;;;;;5049813;28;20493;-58
2023/01/07 11:01:00;;;;;;;3.70;0.50;;;20.20;63.90;;;;;;5049678;28;20051;-58
2023/01/07 11:03:27;;;;;;;4.13;0.70;;;20.20;63.80;;;;;;5051005;28;20037;-58
2023/01/07 11:05:55;;;;;;;3.30;0.60;;;20.20;63.80;;;;;;5037848;28;20071;-58
2023/01/07 11:08:35;;;;;;;1.85;0.52;;;20.20;63.80;;;;;;5053297;28;20047;-59
2023/01/07 11:11:02;;;;;;;2.28;0.50;;;20.20;63.80;;;;;;5054580;28;20056;-59
2023/01/07 11:13:29;;;;;;;2.60;0.60;;;20.20;63.80;;;;;;5052703;28;20470;-58
2023/01/07 11:16:06;;;;;;;2.35;0.63;;;20.20;63.80;;;;;;5053336;28;20072;-58
2023/01/07 11:18:42;;;;;;;1.67;0.60;;;20.20;63.80;;;;;;5053613;28;20491;-59
2023/01/07 11:21:07;;;;;;;2.25;0.50;;;20.20;63.80;;;;;;5053492;28;20052;-58
2023/01/07 11:23:39;;;;;;;1.60;0.70;;;20.20;63.90;;;;;;5053116;28;20048;-59
2023/01/07 11:26:24;;;;;;;1.23;0.52;;;20.20;64.00;;;;;;5055092;28;20049;-59
2023/01/07 11:28:53;;;;;;;1.80;0.40;;;20.20;63.90;;;;;;5054257;28;20485;-59
2023/01/07 11:31:20;;;;;;;4.25;0.40;;;20.20;63.90;;;;;;5054898;28;20040;-59
2023/01/07 11:33:51;;;;;;;3.55;0.60;;;20.20;64.00;;;;;;5053660;28;20040;-59
2023/01/07 11:36:17;;;;;;;1.33;0.50;;;20.20;63.90;;;;;;5063546;28;20431;-59
2023/01/07 11:38:42;;;;;;;2.50;0.55;;;20.20;64.00;;;;;;5037085;28;20044;-59
2023/01/07 11:41:23;;;;;;;1.45;0.55;;;20.20;64.00;;;;;;5054851;28;20037;-59
2023/01/07 11:43:50;;;;;;;3.03;0.50;;;20.20;64.00;;;;;;5036891;28;20480;-58
2023/01/07 11:46:16;;;;;;;2.30;0.50;;;20.20;64.00;;;;;;5055213;28;20163;-58
2023/01/07 11:48:52;;;;;;;1.20;0.50;;;20.20;64.00;;;;;;5054321;28;20041;-58
2023/01/07 11:51:21;;;;;;;1.35;0.40;;;20.20;63.90;;;;;;5052519;28;20044;-57
2023/01/07 11:53:50;;;;;;;1.67;0.50;;;20.20;63.90;;;;;;5054177;28;20045;-57
2023/01/07 11:56:26;;;;;;;2.05;0.50;;;20.20;63.80;;;;;;5054737;28;20082;-57
2023/01/07 11:59:10;;;;;;;1.08;0.70;;;20.10;63.80;;;;;;5055787;28;20094;-57
2023/01/07 12:01:44;;;;;;;3.17;0.70;;;20.10;63.80;;;;;;5055331;28;20044;-57
2023/01/07 12:04:24;;;;;;;1.88;0.52;;;20.10;63.80;;;;;;5054249;28;20033;-57
2023/01/07 12:07:00;;;;;;;2.78;0.55;;;20.10;63.80;;;;;;5055319;28;20424;-57
2023/01/07 12:09:33;;;;;;;4.68;0.75;;;20.10;63.80;;;;;;5050855;28;20550;-56
2023/01/07 12:12:35;;;;;;;1.63;0.50;;;20.10;63.70;;;;;;5050995;28;20049;-56
2023/01/07 12:15:04;;;;;;;3.05;0.63;;;20.10;63.70;;;;;;5052001;28;20037;-59
2023/01/07 12:17:30;;;;;;;3.08;0.68;;;20.10;63.80;;;;;;5050627;28;20060;-56
2023/01/07 12:20:11;;;;;;;1.10;0.55;;;20.10;63.80;;;;;;5051826;28;20049;-58
2023/01/07 12:22:55;;;;;;;3.40;0.60;;;20.10;63.80;;;;;;5026246;28;20071;-56
2023/01/07 12:25:46;;;;;;;3.63;0.70;;;20.10;63.90;;;;;;5050107;28;20123;-56
2023/01/07 12:28:16;;;;;;;3.10;0.73;;;20.10;63.90;;;;;;5045115;28;20076;-56
2023/01/07 12:31:08;;;;;;;2.60;1.17;;;20.10;63.90;;;;;;5044595;28;20080;-57
2023/01/07 12:34:00;;;;;;;3.72;0.82;;;20.10;63.90;;;;;;5042669;28;20092;-57
2023/01/07 12:36:44;;;;;;;3.00;0.60;;;20.10;63.90;;;;;;5051744;28;20075;-56
2023/01/07 12:39:15;;;;;;;5.63;0.70;;;20.10;64.10;;;;;;5052476;28;20163;-57
2023/01/07 12:41:42;;;;;;;1.00;0.60;;;20.20;64.10;;;;;;5053012;28;20067;-56
2023/01/07 12:44:19;;;;;;;3.97;1.23;;;20.20;64.10;;;;;;5052599;28;20037;-55
2023/01/07 12:47:10;;;;;;;6.68;2.13;;;20.20;64.10;;;;;;5052256;28;20045;-56
2023/01/07 12:49:40;;;;;;;11.45;4.28;;;20.20;64.10;;;;;;5041018;28;20167;-56
2023/01/07 12:52:11;;;;;;;7.78;2.25;;;20.20;64.20;;;;;;5057027;28;20496;-56
2023/01/07 12:54:55;;;;;;;55.92;15.80;;;20.30;64.20;;;;;;5054584;28;20052;-57
2023/01/07 12:57:22;;;;;;;15.25;5.35;;;20.30;65.30;;;;;;5036492;28;20473;-57
2023/01/07 12:59:55;;;;;;;13.98;5.03;;;20.30;65.00;;;;;;5047559;28;20155;-56
2023/01/07 13:02:38;;;;;;;11.90;6.53;;;20.40;64.90;;;;;;5052052;28;20116;-57